sensor_id;sensor_type;location;lat;lon;timestamp;P1;durP1;ratioP1;P2;durP2;ratioP2
65896;SDS011;52677;50.898;10.854;2022-08-21T00:00:38;8.65;;;7.72;;
65896;SDS011;52677;50.898;10.854;2022-08-21T00:02:44;10.30;;;7.57;;
65896;SDS011;52677;50.898;10.854;2022-08-21T00:04:47;8.98;;;6.88;;
65896;SDS011;52677;50.898;10.854;2022-08-21T00:06:51;9.40;;;8.10;;
65896;SDS011;52677;50.898;10.854;2022-08-21T00:08:52;8.15;;;7.15;;
65896;SDS011;52677;50.898;10.854;2022-08-21T00:10:53;8.40;;;7.22;;
65896;SDS011;52677;50.898;10.854;2022-08-21T00:12:53;9.10;;;7.60;;
65896;SDS011;52677;50.898;10.854;2022-08-21T00:14:54;10.95;;;7.75;;
65896;SDS011;52677;50.898;10.854;2022-08-21T00:16:54;8.27;;;7.30;;
65896;SDS011;52677;50.898;10.854;2022-08-21T00:18:54;11.25;;;7.38;;
65896;SDS011;52677;50.898;10.854;2022-08-21T00:20:55;10.15;;;7.45;;
65896;SDS011;52677;50.898;10.854;2022-08-21T00:22:55;11.77;;;7.55;;
65896;SDS011;52677;50.898;10.854;2022-08-21T00:24:55;8.15;;;7.28;;
65896;SDS011;52677;50.898;10.854;2022-08-21T00:26:56;6.88;;;6.10;;
65896;SDS011;52677;50.898;10.854;2022-08-21T00:28:56;10.57;;;7.38;;
65896;SDS011;52677;50.898;10.854;2022-08-21T00:30:57;8.23;;;6.78;;
65896;SDS011;52677;50.898;10.854;2022-08-21T00:32:58;8.73;;;6.65;;
65896;SDS011;52677;50.898;10.854;2022-08-21T00:34:59;7.07;;;6.25;;
65896;SDS011;52677;50.898;10.854;2022-08-21T00:37:00;9.30;;;6.22;;
65896;SDS011;52677;50.898;10.854;2022-08-21T00:39:00;8.55;;;6.70;;
65896;SDS011;52677;50.898;10.854;2022-08-21T00:41:04;7.70;;;6.22;;
65896;SDS011;52677;50.898;10.854;2022-08-21T00:43:07;8.38;;;6.28;;
65896;SDS011;52677;50.898;10.854;2022-08-21T00:45:10;8.63;;;6.63;;
65896;SDS011;52677;50.898;10.854;2022-08-21T00:47:12;8.90;;;6.05;;
65896;SDS011;52677;50.898;10.854;2022-08-21T00:49:12;6.97;;;5.80;;
65896;SDS011;52677;50.898;10.854;2022-08-21T00:51:14;7.55;;;5.15;;
65896;SDS011;52677;50.898;10.854;2022-08-21T00:53:22;7.15;;;4.97;;
65896;SDS011;52677;50.898;10.854;2022-08-21T00:55:23;8.73;;;5.70;;
65896;SDS011;52677;50.898;10.854;2022-08-21T00:57:29;8.95;;;6.03;;
65896;SDS011;52677;50.898;10.854;2022-08-21T00:59:33;11.52;;;6.20;;
65896;SDS011;52677;50.898;10.854;2022-08-21T01:01:37;6.50;;;5.53;;
65896;SDS011;52677;50.898;10.854;2022-08-21T01:03:37;7.03;;;5.95;;
65896;SDS011;52677;50.898;10.854;2022-08-21T01:05:38;7.28;;;6.13;;
65896;SDS011;52677;50.898;10.854;2022-08-21T01:07:40;6.30;;;5.57;;
65896;SDS011;52677;50.898;10.854;2022-08-21T01:09:42;8.77;;;5.70;;
65896;SDS011;52677;50.898;10.854;2022-08-21T01:11:44;7.07;;;6.15;;
65896;SDS011;52677;50.898;10.854;2022-08-21T01:13:45;7.97;;;6.88;;
65896;SDS011;52677;50.898;10.854;2022-08-21T01:15:47;7.10;;;5.85;;
65896;SDS011;52677;50.898;10.854;2022-08-21T01:17:49;6.75;;;5.72;;
65896;SDS011;52677;50.898;10.854;2022-08-21T01:19:51;7.10;;;6.13;;
65896;SDS011;52677;50.898;10.854;2022-08-21T01:21:51;8.55;;;6.15;;
65896;SDS011;52677;50.898;10.854;2022-08-21T01:23:54;6.65;;;5.95;;
65896;SDS011;52677;50.898;10.854;2022-08-21T01:27:56;8.50;;;5.68;;
65896;SDS011;52677;50.898;10.854;2022-08-21T01:30:06;6.03;;;5.40;;
65896;SDS011;52677;50.898;10.854;2022-08-21T01:32:12;8.35;;;5.80;;
65896;SDS011;52677;50.898;10.854;2022-08-21T01:34:15;5.88;;;5.25;;
65896;SDS011;52677;50.898;10.854;2022-08-21T01:36:15;5.53;;;4.50;;
65896;SDS011;52677;50.898;10.854;2022-08-21T01:38:16;5.43;;;4.88;;
65896;SDS011;52677;50.898;10.854;2022-08-21T01:40:17;4.85;;;4.35;;
65896;SDS011;52677;50.898;10.854;2022-08-21T01:42:18;5.82;;;5.22;;
65896;SDS011;52677;50.898;10.854;2022-08-21T01:44:22;6.25;;;5.32;;
65896;SDS011;52677;50.898;10.854;2022-08-21T01:46:23;5.43;;;4.82;;
65896;SDS011;52677;50.898;10.854;2022-08-21T01:48:24;5.85;;;4.93;;
65896;SDS011;52677;50.898;10.854;2022-08-21T01:50:24;5.30;;;4.75;;
65896;SDS011;52677;50.898;10.854;2022-08-21T01:52:25;6.47;;;4.88;;
65896;SDS011;52677;50.898;10.854;2022-08-21T01:54:25;5.15;;;4.63;;
65896;SDS011;52677;50.898;10.854;2022-08-21T01:56:26;5.35;;;4.85;;
65896;SDS011;52677;50.898;10.854;2022-08-21T01:58:27;6.63;;;4.72;;
65896;SDS011;52677;50.898;10.854;2022-08-21T02:00:28;4.78;;;4.28;;
65896;SDS011;52677;50.898;10.854;2022-08-21T02:02:28;4.72;;;4.32;;
65896;SDS011;52677;50.898;10.854;2022-08-21T02:04:29;6.47;;;4.63;;
65896;SDS011;52677;50.898;10.854;2022-08-21T02:06:30;5.88;;;5.28;;
65896;SDS011;52677;50.898;10.854;2022-08-21T02:08:30;5.30;;;4.72;;
65896;SDS011;52677;50.898;10.854;2022-08-21T02:10:31;8.98;;;5.68;;
65896;SDS011;52677;50.898;10.854;2022-08-21T02:12:32;7.25;;;5.05;;
65896;SDS011;52677;50.898;10.854;2022-08-21T02:14:33;5.28;;;4.78;;
65896;SDS011;52677;50.898;10.854;2022-08-21T02:16:33;6.22;;;4.60;;
65896;SDS011;52677;50.898;10.854;2022-08-21T02:18:34;9.20;;;4.82;;
65896;SDS011;52677;50.898;10.854;2022-08-21T02:20:36;5.57;;;3.90;;
65896;SDS011;52677;50.898;10.854;2022-08-21T02:22:39;4.13;;;3.20;;
65896;SDS011;52677;50.898;10.854;2022-08-21T02:24:39;3.80;;;2.60;;
65896;SDS011;52677;50.898;10.854;2022-08-21T02:26:40;3.25;;;2.95;;
65896;SDS011;52677;50.898;10.854;2022-08-21T02:28:40;3.22;;;2.85;;
65896;SDS011;52677;50.898;10.854;2022-08-21T02:30:43;2.90;;;2.70;;
65896;SDS011;52677;50.898;10.854;2022-08-21T02:32:45;4.03;;;3.40;;
65896;SDS011;52677;50.898;10.854;2022-08-21T02:34:46;3.50;;;3.20;;
65896;SDS011;52677;50.898;10.854;2022-08-21T02:36:46;3.55;;;3.25;;
65896;SDS011;52677;50.898;10.854;2022-08-21T02:38:46;3.47;;;3.17;;
65896;SDS011;52677;50.898;10.854;2022-08-21T02:40:47;3.92;;;3.55;;
65896;SDS011;52677;50.898;10.854;2022-08-21T02:42:50;4.50;;;3.65;;
65896;SDS011;52677;50.898;10.854;2022-08-21T02:44:50;5.20;;;4.30;;
65896;SDS011;52677;50.898;10.854;2022-08-21T02:46:51;3.92;;;3.58;;
65896;SDS011;52677;50.898;10.854;2022-08-21T02:48:51;4.43;;;4.03;;
65896;SDS011;52677;50.898;10.854;2022-08-21T02:51:02;3.55;;;3.25;;
65896;SDS011;52677;50.898;10.854;2022-08-21T02:53:05;4.65;;;4.15;;
65896;SDS011;52677;50.898;10.854;2022-08-21T02:55:07;5.20;;;4.13;;
65896;SDS011;52677;50.898;10.854;2022-08-21T02:57:07;4.40;;;4.00;;
65896;SDS011;52677;50.898;10.854;2022-08-21T02:59:08;4.60;;;3.55;;
65896;SDS011;52677;50.898;10.854;2022-08-21T03:01:09;4.43;;;3.67;;
65896;SDS011;52677;50.898;10.854;2022-08-21T03:03:10;4.07;;;3.67;;
65896;SDS011;52677;50.898;10.854;2022-08-21T03:05:12;4.30;;;3.90;;
65896;SDS011;52677;50.898;10.854;2022-08-21T03:07:13;4.30;;;3.90;;
65896;SDS011;52677;50.898;10.854;2022-08-21T03:09:15;4.65;;;3.65;;
65896;SDS011;52677;50.898;10.854;2022-08-21T03:11:15;5.15;;;4.03;;
65896;SDS011;52677;50.898;10.854;2022-08-21T03:13:16;7.80;;;4.43;;
65896;SDS011;52677;50.898;10.854;2022-08-21T03:15:19;4.75;;;4.18;;
65896;SDS011;52677;50.898;10.854;2022-08-21T03:17:21;6.93;;;3.88;;
65896;SDS011;52677;50.898;10.854;2022-08-21T03:19:22;4.50;;;4.05;;
65896;SDS011;52677;50.898;10.854;2022-08-21T03:21:22;4.60;;;3.67;;
65896;SDS011;52677;50.898;10.854;2022-08-21T03:23:23;4.20;;;3.40;;
65896;SDS011;52677;50.898;10.854;2022-08-21T03:25:25;4.10;;;3.47;;
65896;SDS011;52677;50.898;10.854;2022-08-21T03:29:27;3.85;;;3.20;;
65896;SDS011;52677;50.898;10.854;2022-08-21T03:31:27;3.63;;;3.30;;
65896;SDS011;52677;50.898;10.854;2022-08-21T03:33:30;4.53;;;3.92;;
65896;SDS011;52677;50.898;10.854;2022-08-21T03:35:32;5.28;;;4.20;;
65896;SDS011;52677;50.898;10.854;2022-08-21T03:37:32;5.63;;;3.92;;
65896;SDS011;52677;50.898;10.854;2022-08-21T03:39:33;4.13;;;3.72;;
65896;SDS011;52677;50.898;10.854;2022-08-21T03:41:34;6.07;;;3.30;;
65896;SDS011;52677;50.898;10.854;2022-08-21T03:43:34;3.78;;;3.42;;
65896;SDS011;52677;50.898;10.854;2022-08-21T03:45:35;5.20;;;3.75;;
65896;SDS011;52677;50.898;10.854;2022-08-21T03:47:35;3.90;;;3.40;;
65896;SDS011;52677;50.898;10.854;2022-08-21T03:49:36;5.97;;;3.38;;
65896;SDS011;52677;50.898;10.854;2022-08-21T03:51:37;12.98;;;3.88;;
65896;SDS011;52677;50.898;10.854;2022-08-21T03:53:37;11.60;;;3.67;;
65896;SDS011;52677;50.898;10.854;2022-08-21T03:55:37;8.98;;;3.63;;
65896;SDS011;52677;50.898;10.854;2022-08-21T03:57:38;3.97;;;3.50;;
65896;SDS011;52677;50.898;10.854;2022-08-21T03:59:38;5.55;;;3.30;;
65896;SDS011;52677;50.898;10.854;2022-08-21T04:01:39;6.28;;;3.55;;
65896;SDS011;52677;50.898;10.854;2022-08-21T04:03:39;4.65;;;3.00;;
65896;SDS011;52677;50.898;10.854;2022-08-21T04:05:40;4.25;;;3.70;;
65896;SDS011;52677;50.898;10.854;2022-08-21T04:07:40;4.80;;;3.53;;
65896;SDS011;52677;50.898;10.854;2022-08-21T04:09:41;4.85;;;3.97;;
65896;SDS011;52677;50.898;10.854;2022-08-21T04:11:41;6.80;;;4.18;;
65896;SDS011;52677;50.898;10.854;2022-08-21T04:13:42;5.00;;;4.40;;
65896;SDS011;52677;50.898;10.854;2022-08-21T04:15:42;7.70;;;4.82;;
65896;SDS011;52677;50.898;10.854;2022-08-21T04:17:43;5.70;;;4.60;;
65896;SDS011;52677;50.898;10.854;2022-08-21T04:19:43;6.78;;;5.20;;
65896;SDS011;52677;50.898;10.854;2022-08-21T04:21:44;8.38;;;5.10;;
65896;SDS011;52677;50.898;10.854;2022-08-21T04:23:44;13.73;;;6.22;;
65896;SDS011;52677;50.898;10.854;2022-08-21T04:25:45;8.95;;;6.47;;
65896;SDS011;52677;50.898;10.854;2022-08-21T04:27:46;14.43;;;6.45;;
65896;SDS011;52677;50.898;10.854;2022-08-21T04:29:46;10.45;;;6.50;;
65896;SDS011;52677;50.898;10.854;2022-08-21T04:31:47;13.55;;;8.23;;
65896;SDS011;52677;50.898;10.854;2022-08-21T04:33:47;12.30;;;7.63;;
65896;SDS011;52677;50.898;10.854;2022-08-21T04:35:48;11.23;;;6.75;;
65896;SDS011;52677;50.898;10.854;2022-08-21T04:37:49;6.90;;;5.65;;
65896;SDS011;52677;50.898;10.854;2022-08-21T04:39:50;7.22;;;4.90;;
65896;SDS011;52677;50.898;10.854;2022-08-21T04:41:51;5.43;;;4.38;;
65896;SDS011;52677;50.898;10.854;2022-08-21T04:43:51;6.10;;;4.15;;
65896;SDS011;52677;50.898;10.854;2022-08-21T04:45:52;4.65;;;4.18;;
65896;SDS011;52677;50.898;10.854;2022-08-21T04:47:54;8.20;;;4.10;;
65896;SDS011;52677;50.898;10.854;2022-08-21T04:49:56;4.22;;;3.83;;
65896;SDS011;52677;50.898;10.854;2022-08-21T04:51:56;6.25;;;3.75;;
65896;SDS011;52677;50.898;10.854;2022-08-21T04:54:02;4.45;;;3.88;;
65896;SDS011;52677;50.898;10.854;2022-08-21T04:56:13;4.70;;;4.28;;
65896;SDS011;52677;50.898;10.854;2022-08-21T04:58:21;4.72;;;4.22;;
65896;SDS011;52677;50.898;10.854;2022-08-21T05:00:26;4.28;;;3.88;;
65896;SDS011;52677;50.898;10.854;2022-08-21T05:02:26;4.22;;;3.83;;
65896;SDS011;52677;50.898;10.854;2022-08-21T05:04:28;4.90;;;4.40;;
65896;SDS011;52677;50.898;10.854;2022-08-21T05:06:31;9.30;;;5.40;;
65896;SDS011;52677;50.898;10.854;2022-08-21T05:08:35;4.97;;;4.47;;
65896;SDS011;52677;50.898;10.854;2022-08-21T05:10:36;9.45;;;4.90;;
65896;SDS011;52677;50.898;10.854;2022-08-21T05:12:37;6.15;;;4.63;;
65896;SDS011;52677;50.898;10.854;2022-08-21T05:14:37;5.22;;;4.40;;
65896;SDS011;52677;50.898;10.854;2022-08-21T05:16:38;5.95;;;4.68;;
65896;SDS011;52677;50.898;10.854;2022-08-21T05:18:38;5.50;;;4.78;;
65896;SDS011;52677;50.898;10.854;2022-08-21T05:20:39;5.43;;;4.53;;
65896;SDS011;52677;50.898;10.854;2022-08-21T05:22:39;5.00;;;4.50;;
65896;SDS011;52677;50.898;10.854;2022-08-21T05:24:39;5.38;;;4.40;;
65896;SDS011;52677;50.898;10.854;2022-08-21T05:26:40;5.68;;;4.97;;
65896;SDS011;52677;50.898;10.854;2022-08-21T05:28:40;7.90;;;4.75;;
65896;SDS011;52677;50.898;10.854;2022-08-21T05:30:41;5.13;;;4.63;;
65896;SDS011;52677;50.898;10.854;2022-08-21T05:32:41;5.10;;;4.50;;
65896;SDS011;52677;50.898;10.854;2022-08-21T05:34:41;5.38;;;4.88;;
65896;SDS011;52677;50.898;10.854;2022-08-21T05:36:42;5.70;;;4.72;;
65896;SDS011;52677;50.898;10.854;2022-08-21T05:38:42;5.22;;;4.72;;
65896;SDS011;52677;50.898;10.854;2022-08-21T05:40:43;5.80;;;5.18;;
65896;SDS011;52677;50.898;10.854;2022-08-21T05:42:44;6.03;;;4.80;;
65896;SDS011;52677;50.898;10.854;2022-08-21T05:44:45;5.70;;;5.10;;
65896;SDS011;52677;50.898;10.854;2022-08-21T05:46:45;6.15;;;5.20;;
65896;SDS011;52677;50.898;10.854;2022-08-21T05:48:45;7.45;;;5.82;;
65896;SDS011;52677;50.898;10.854;2022-08-21T05:50:46;7.57;;;6.22;;
65896;SDS011;52677;50.898;10.854;2022-08-21T05:52:48;6.13;;;5.32;;
65896;SDS011;52677;50.898;10.854;2022-08-21T05:54:48;6.93;;;5.80;;
65896;SDS011;52677;50.898;10.854;2022-08-21T05:56:49;6.40;;;5.78;;
65896;SDS011;52677;50.898;10.854;2022-08-21T05:58:49;9.13;;;6.60;;
65896;SDS011;52677;50.898;10.854;2022-08-21T06:00:50;7.43;;;6.22;;
65896;SDS011;52677;50.898;10.854;2022-08-21T06:02:51;10.27;;;6.88;;
65896;SDS011;52677;50.898;10.854;2022-08-21T06:04:51;8.15;;;6.70;;
65896;SDS011;52677;50.898;10.854;2022-08-21T06:06:51;8.48;;;6.80;;
65896;SDS011;52677;50.898;10.854;2022-08-21T06:08:52;7.93;;;7.00;;
65896;SDS011;52677;50.898;10.854;2022-08-21T06:10:54;9.32;;;7.65;;
65896;SDS011;52677;50.898;10.854;2022-08-21T06:12:56;10.02;;;7.80;;
65896;SDS011;52677;50.898;10.854;2022-08-21T06:14:56;9.82;;;8.07;;
65896;SDS011;52677;50.898;10.854;2022-08-21T06:17:03;10.70;;;8.82;;
65896;SDS011;52677;50.898;10.854;2022-08-21T06:19:05;10.30;;;8.45;;
65896;SDS011;52677;50.898;10.854;2022-08-21T06:21:05;11.07;;;8.52;;
65896;SDS011;52677;50.898;10.854;2022-08-21T06:23:06;9.48;;;7.78;;
65896;SDS011;52677;50.898;10.854;2022-08-21T06:25:07;12.75;;;8.95;;
65896;SDS011;52677;50.898;10.854;2022-08-21T06:27:09;11.80;;;9.43;;
65896;SDS011;52677;50.898;10.854;2022-08-21T06:29:10;13.25;;;8.35;;
65896;SDS011;52677;50.898;10.854;2022-08-21T06:31:13;12.70;;;8.60;;
65896;SDS011;52677;50.898;10.854;2022-08-21T06:33:16;10.43;;;8.25;;
65896;SDS011;52677;50.898;10.854;2022-08-21T06:35:17;14.45;;;9.25;;
65896;SDS011;52677;50.898;10.854;2022-08-21T06:37:17;10.65;;;8.65;;
65896;SDS011;52677;50.898;10.854;2022-08-21T06:39:17;11.05;;;8.20;;
65896;SDS011;52677;50.898;10.854;2022-08-21T06:41:18;13.52;;;9.23;;
65896;SDS011;52677;50.898;10.854;2022-08-21T06:43:19;10.98;;;8.82;;
65896;SDS011;52677;50.898;10.854;2022-08-21T06:45:20;10.02;;;8.18;;
65896;SDS011;52677;50.898;10.854;2022-08-21T06:47:21;12.40;;;8.93;;
65896;SDS011;52677;50.898;10.854;2022-08-21T06:49:21;11.43;;;9.38;;
65896;SDS011;52677;50.898;10.854;2022-08-21T06:51:22;10.75;;;8.13;;
65896;SDS011;52677;50.898;10.854;2022-08-21T06:53:23;12.45;;;8.98;;
65896;SDS011;52677;50.898;10.854;2022-08-21T06:55:24;10.25;;;8.45;;
65896;SDS011;52677;50.898;10.854;2022-08-21T06:57:24;9.35;;;8.32;;
65896;SDS011;52677;50.898;10.854;2022-08-21T06:59:25;10.25;;;7.88;;
65896;SDS011;52677;50.898;10.854;2022-08-21T07:01:26;10.38;;;9.25;;
65896;SDS011;52677;50.898;10.854;2022-08-21T07:03:28;16.35;;;9.20;;
65896;SDS011;52677;50.898;10.854;2022-08-21T07:05:34;9.20;;;7.80;;
65896;SDS011;52677;50.898;10.854;2022-08-21T07:07:34;9.00;;;7.65;;
65896;SDS011;52677;50.898;10.854;2022-08-21T07:09:34;9.60;;;8.48;;
65896;SDS011;52677;50.898;10.854;2022-08-21T07:11:35;10.98;;;9.40;;
65896;SDS011;52677;50.898;10.854;2022-08-21T07:13:35;8.82;;;7.22;;
65896;SDS011;52677;50.898;10.854;2022-08-21T07:15:36;10.50;;;8.88;;
65896;SDS011;52677;50.898;10.854;2022-08-21T07:17:36;12.07;;;9.10;;
65896;SDS011;52677;50.898;10.854;2022-08-21T07:19:36;9.07;;;8.00;;
65896;SDS011;52677;50.898;10.854;2022-08-21T07:21:37;10.32;;;9.23;;
65896;SDS011;52677;50.898;10.854;2022-08-21T07:23:39;10.98;;;9.30;;
65896;SDS011;52677;50.898;10.854;2022-08-21T07:25:42;11.73;;;9.27;;
65896;SDS011;52677;50.898;10.854;2022-08-21T07:27:42;13.15;;;9.90;;
65896;SDS011;52677;50.898;10.854;2022-08-21T07:29:43;12.40;;;9.48;;
65896;SDS011;52677;50.898;10.854;2022-08-21T07:31:43;11.73;;;9.18;;
65896;SDS011;52677;50.898;10.854;2022-08-21T07:33:44;10.25;;;9.15;;
65896;SDS011;52677;50.898;10.854;2022-08-21T07:35:45;14.73;;;9.80;;
65896;SDS011;52677;50.898;10.854;2022-08-21T07:37:46;9.27;;;8.07;;
65896;SDS011;52677;50.898;10.854;2022-08-21T07:39:46;9.18;;;7.65;;
65896;SDS011;52677;50.898;10.854;2022-08-21T07:41:48;13.77;;;10.45;;
65896;SDS011;52677;50.898;10.854;2022-08-21T07:43:49;10.77;;;9.25;;
65896;SDS011;52677;50.898;10.854;2022-08-21T07:45:49;10.07;;;8.95;;
65896;SDS011;52677;50.898;10.854;2022-08-21T07:47:50;10.82;;;9.73;;
65896;SDS011;52677;50.898;10.854;2022-08-21T07:49:51;9.80;;;8.80;;
65896;SDS011;52677;50.898;10.854;2022-08-21T07:51:52;10.20;;;8.50;;
65896;SDS011;52677;50.898;10.854;2022-08-21T07:53:53;10.70;;;9.13;;
65896;SDS011;52677;50.898;10.854;2022-08-21T07:57:57;15.07;;;10.83;;
65896;SDS011;52677;50.898;10.854;2022-08-21T07:59:57;14.18;;;10.38;;
65896;SDS011;52677;50.898;10.854;2022-08-21T08:01:57;12.05;;;9.88;;
65896;SDS011;52677;50.898;10.854;2022-08-21T08:03:58;12.25;;;9.73;;
65896;SDS011;52677;50.898;10.854;2022-08-21T08:05:58;15.02;;;10.60;;
65896;SDS011;52677;50.898;10.854;2022-08-21T08:07:59;13.00;;;10.20;;
65896;SDS011;52677;50.898;10.854;2022-08-21T08:09:59;12.30;;;10.82;;
65896;SDS011;52677;50.898;10.854;2022-08-21T08:12:00;14.32;;;10.88;;
65896;SDS011;52677;50.898;10.854;2022-08-21T08:14:00;11.88;;;10.52;;
65896;SDS011;52677;50.898;10.854;2022-08-21T08:16:03;13.63;;;10.70;;
65896;SDS011;52677;50.898;10.854;2022-08-21T08:18:04;11.65;;;9.88;;
65896;SDS011;52677;50.898;10.854;2022-08-21T08:20:05;10.70;;;8.57;;
65896;SDS011;52677;50.898;10.854;2022-08-21T08:22:16;12.43;;;9.88;;
65896;SDS011;52677;50.898;10.854;2022-08-21T08:24:19;16.27;;;11.30;;
65896;SDS011;52677;50.898;10.854;2022-08-21T08:26:19;10.55;;;9.35;;
65896;SDS011;52677;50.898;10.854;2022-08-21T08:28:20;14.57;;;10.32;;
65896;SDS011;52677;50.898;10.854;2022-08-21T08:30:21;13.53;;;9.43;;
65896;SDS011;52677;50.898;10.854;2022-08-21T08:32:23;13.25;;;10.68;;
65896;SDS011;52677;50.898;10.854;2022-08-21T08:34:24;11.00;;;8.88;;
65896;SDS011;52677;50.898;10.854;2022-08-21T08:36:31;13.98;;;10.15;;
65896;SDS011;52677;50.898;10.854;2022-08-21T08:38:33;13.13;;;10.40;;
65896;SDS011;52677;50.898;10.854;2022-08-21T08:40:55;13.55;;;11.38;;
65896;SDS011;52677;50.898;10.854;2022-08-21T08:43:02;12.32;;;9.98;;
65896;SDS011;52677;50.898;10.854;2022-08-21T08:45:07;12.55;;;10.63;;
65896;SDS011;52677;50.898;10.854;2022-08-21T08:47:10;13.05;;;10.80;;
65896;SDS011;52677;50.898;10.854;2022-08-21T08:49:18;16.48;;;11.75;;
65896;SDS011;52677;50.898;10.854;2022-08-21T08:51:28;14.23;;;11.57;;
65896;SDS011;52677;50.898;10.854;2022-08-21T08:53:52;16.70;;;11.80;;
65896;SDS011;52677;50.898;10.854;2022-08-21T08:55:57;15.75;;;12.20;;
65896;SDS011;52677;50.898;10.854;2022-08-21T08:57:57;14.85;;;13.23;;
65896;SDS011;52677;50.898;10.854;2022-08-21T08:59:59;13.80;;;11.60;;
65896;SDS011;52677;50.898;10.854;2022-08-21T09:02:01;12.15;;;10.77;;
65896;SDS011;52677;50.898;10.854;2022-08-21T09:04:01;13.18;;;10.90;;
65896;SDS011;52677;50.898;10.854;2022-08-21T09:24:40;14.98;;;11.23;;
65896;SDS011;52677;50.898;10.854;2022-08-21T09:27:08;14.48;;;10.75;;
65896;SDS011;52677;50.898;10.854;2022-08-21T09:29:11;14.38;;;10.90;;
65896;SDS011;52677;50.898;10.854;2022-08-21T09:33:21;15.73;;;9.90;;
65896;SDS011;52677;50.898;10.854;2022-08-21T09:35:23;12.25;;;8.73;;
65896;SDS011;52677;50.898;10.854;2022-08-21T09:37:24;11.77;;;8.50;;
65896;SDS011;52677;50.898;10.854;2022-08-21T09:39:31;11.55;;;9.40;;
65896;SDS011;52677;50.898;10.854;2022-08-21T09:41:37;10.77;;;8.95;;
65896;SDS011;52677;50.898;10.854;2022-08-21T09:43:38;11.23;;;8.55;;
65896;SDS011;52677;50.898;10.854;2022-08-21T09:45:39;9.75;;;8.07;;
65896;SDS011;52677;50.898;10.854;2022-08-21T09:47:42;9.55;;;8.18;;
65896;SDS011;52677;50.898;10.854;2022-08-21T09:49:43;10.85;;;6.88;;
65896;SDS011;52677;50.898;10.854;2022-08-21T09:51:49;10.93;;;7.63;;
65896;SDS011;52677;50.898;10.854;2022-08-21T09:53:56;9.48;;;8.25;;
65896;SDS011;52677;50.898;10.854;2022-08-21T09:58:41;8.25;;;7.40;;
65896;SDS011;52677;50.898;10.854;2022-08-21T10:00:44;9.85;;;7.78;;
65896;SDS011;52677;50.898;10.854;2022-08-21T10:02:45;8.75;;;7.22;;
65896;SDS011;52677;50.898;10.854;2022-08-21T10:04:49;6.07;;;5.30;;
65896;SDS011;52677;50.898;10.854;2022-08-21T10:07:10;5.75;;;4.70;;
65896;SDS011;52677;50.898;10.854;2022-08-21T10:09:13;7.55;;;4.90;;
65896;SDS011;52677;50.898;10.854;2022-08-21T10:11:16;8.00;;;4.57;;
65896;SDS011;52677;50.898;10.854;2022-08-21T10:18:31;13.05;;;5.22;;
65896;SDS011;52677;50.898;10.854;2022-08-21T10:20:52;8.52;;;4.72;;
65896;SDS011;52677;50.898;10.854;2022-08-21T10:43:02;5.75;;;3.92;;
65896;SDS011;52677;50.898;10.854;2022-08-21T10:57:22;5.40;;;4.07;;
65896;SDS011;52677;50.898;10.854;2022-08-21T10:59:46;5.82;;;4.15;;
65896;SDS011;52677;50.898;10.854;2022-08-21T11:01:53;6.38;;;4.20;;
65896;SDS011;52677;50.898;10.854;2022-08-21T11:04:00;6.93;;;4.20;;
65896;SDS011;52677;50.898;10.854;2022-08-21T11:06:25;5.25;;;4.05;;
65896;SDS011;52677;50.898;10.854;2022-08-21T11:08:29;7.20;;;3.88;;
65896;SDS011;52677;50.898;10.854;2022-08-21T11:10:52;6.25;;;4.32;;
65896;SDS011;52677;50.898;10.854;2022-08-21T11:13:01;4.53;;;3.70;;
65896;SDS011;52677;50.898;10.854;2022-08-21T11:17:30;5.78;;;4.28;;
65896;SDS011;52677;50.898;10.854;2022-08-21T11:21:58;5.55;;;4.03;;
65896;SDS011;52677;50.898;10.854;2022-08-21T11:26:34;5.15;;;3.38;;
65896;SDS011;52677;50.898;10.854;2022-08-21T11:28:49;5.00;;;3.67;;
65896;SDS011;52677;50.898;10.854;2022-08-21T11:31:02;7.53;;;3.20;;
65896;SDS011;52677;50.898;10.854;2022-08-21T11:33:26;5.88;;;3.38;;
65896;SDS011;52677;50.898;10.854;2022-08-21T11:35:50;4.40;;;3.05;;
65896;SDS011;52677;50.898;10.854;2022-08-21T11:40:19;7.65;;;3.70;;
65896;SDS011;52677;50.898;10.854;2022-08-21T11:46:58;6.28;;;3.70;;
65896;SDS011;52677;50.898;10.854;2022-08-21T11:51:42;6.60;;;3.28;;
65896;SDS011;52677;50.898;10.854;2022-08-21T11:56:00;6.87;;;3.63;;
65896;SDS011;52677;50.898;10.854;2022-08-21T11:58:14;5.57;;;3.10;;
65896;SDS011;52677;50.898;10.854;2022-08-21T12:00:28;5.68;;;3.00;;
65896;SDS011;52677;50.898;10.854;2022-08-21T12:02:34;4.38;;;2.88;;
65896;SDS011;52677;50.898;10.854;2022-08-21T12:04:44;4.97;;;3.25;;
65896;SDS011;52677;50.898;10.854;2022-08-21T12:06:47;3.50;;;2.70;;
65896;SDS011;52677;50.898;10.854;2022-08-21T12:08:56;4.82;;;3.25;;
65896;SDS011;52677;50.898;10.854;2022-08-21T12:11:04;3.55;;;3.00;;
65896;SDS011;52677;50.898;10.854;2022-08-21T12:13:09;6.72;;;3.08;;
65896;SDS011;52677;50.898;10.854;2022-08-21T12:17:22;5.80;;;3.22;;
65896;SDS011;52677;50.898;10.854;2022-08-21T12:21:27;5.00;;;3.00;;
65896;SDS011;52677;50.898;10.854;2022-08-21T12:23:43;8.60;;;3.22;;
65896;SDS011;52677;50.898;10.854;2022-08-21T12:28:21;4.97;;;3.00;;
65896;SDS011;52677;50.898;10.854;2022-08-21T12:32:30;5.47;;;3.47;;
65896;SDS011;52677;50.898;10.854;2022-08-21T12:34:50;6.10;;;3.80;;
65896;SDS011;52677;50.898;10.854;2022-08-21T12:37:05;6.93;;;3.10;;
65896;SDS011;52677;50.898;10.854;2022-08-21T12:39:16;3.70;;;2.90;;
65896;SDS011;52677;50.898;10.854;2022-08-21T12:41:33;5.10;;;3.20;;
65896;SDS011;52677;50.898;10.854;2022-08-21T12:43:51;5.63;;;2.75;;
65896;SDS011;52677;50.898;10.854;2022-08-21T12:45:59;5.10;;;3.03;;
65896;SDS011;52677;50.898;10.854;2022-08-21T12:48:09;7.03;;;3.20;;
65896;SDS011;52677;50.898;10.854;2022-08-21T12:50:11;6.32;;;3.20;;
65896;SDS011;52677;50.898;10.854;2022-08-21T12:52:20;3.85;;;2.70;;
65896;SDS011;52677;50.898;10.854;2022-08-21T12:54:26;4.50;;;2.83;;
65896;SDS011;52677;50.898;10.854;2022-08-21T12:56:32;5.82;;;2.80;;
65896;SDS011;52677;50.898;10.854;2022-08-21T12:58:33;5.15;;;2.60;;
65896;SDS011;52677;50.898;10.854;2022-08-21T13:00:34;5.03;;;2.92;;
65896;SDS011;52677;50.898;10.854;2022-08-21T13:02:37;7.03;;;2.67;;
65896;SDS011;52677;50.898;10.854;2022-08-21T13:04:43;5.07;;;3.33;;
65896;SDS011;52677;50.898;10.854;2022-08-21T13:06:45;6.78;;;3.05;;
65896;SDS011;52677;50.898;10.854;2022-08-21T13:08:51;4.25;;;2.60;;
65896;SDS011;52677;50.898;10.854;2022-08-21T13:10:59;4.40;;;2.88;;
65896;SDS011;52677;50.898;10.854;2022-08-21T13:13:06;7.22;;;5.03;;
65896;SDS011;52677;50.898;10.854;2022-08-21T13:15:11;6.45;;;3.40;;
65896;SDS011;52677;50.898;10.854;2022-08-21T13:17:13;5.60;;;2.77;;
65896;SDS011;52677;50.898;10.854;2022-08-21T13:19:17;3.38;;;2.67;;
65896;SDS011;52677;50.898;10.854;2022-08-21T13:21:19;4.30;;;3.03;;
65896;SDS011;52677;50.898;10.854;2022-08-21T13:23:29;4.03;;;2.50;;
65896;SDS011;52677;50.898;10.854;2022-08-21T13:25:33;2.83;;;2.50;;
65896;SDS011;52677;50.898;10.854;2022-08-21T13:27:35;4.18;;;2.65;;
65896;SDS011;52677;50.898;10.854;2022-08-21T13:29:35;5.00;;;3.08;;
65896;SDS011;52677;50.898;10.854;2022-08-21T13:31:36;5.30;;;2.90;;
65896;SDS011;52677;50.898;10.854;2022-08-21T13:33:39;4.50;;;3.15;;
65896;SDS011;52677;50.898;10.854;2022-08-21T13:37:56;5.60;;;3.03;;
65896;SDS011;52677;50.898;10.854;2022-08-21T13:39:58;5.93;;;3.63;;
65896;SDS011;52677;50.898;10.854;2022-08-21T13:41:59;4.03;;;2.97;;
65896;SDS011;52677;50.898;10.854;2022-08-21T13:44:03;4.18;;;2.88;;